DGRPO EDWN-EDDG
Flight info
| Callsign | DGRPO |
|---|---|
| Flight time | 0h 22m |
| Altitude | 4000 |
| Route | LOCAL IFR |
| Aircraft | DA42/L-C/L2 |
Departure
| Time | 2026-04-21 14:16 |
|---|---|
| Airport | Flugplatz Nordhorn-Lingen (EDWN) |
Arrival
| Time | 2026-04-21 14:38 |
|---|---|
| Airport | Münster Osnabrück Airport (EDDG) |
| Time | Latitude | Longitude | Altitude | Speed | Heading |
|---|---|---|---|---|---|
| 2026-04-21 14:06 | 52.45819 | 7.17587 | 92 ft | 0 kts | 117° |
| 2026-04-21 14:08 | 52.45814 | 7.17596 | 95 ft | 6 kts | 135° |
| 2026-04-21 14:09 | 52.45798 | 7.17669 | 95 ft | 7 kts | 126° |
| 2026-04-21 14:09 | 52.45748 | 7.17691 | 94 ft | 10 kts | 216° |
| 2026-04-21 14:09 | 52.45688 | 7.17622 | 93 ft | 8 kts | 204° |
| 2026-04-21 14:09 | 52.45642 | 7.17586 | 95 ft | 8 kts | 208° |
| 2026-04-21 14:10 | 52.45581 | 7.17570 | 94 ft | 11 kts | 153° |
| 2026-04-21 14:10 | 52.45539 | 7.17633 | 96 ft | 4 kts | 76° |
| 2026-04-21 14:10 | 52.45550 | 7.17666 | 95 ft | 0 kts | 55° |
| 2026-04-21 14:14 | 52.45549 | 7.17666 | 95 ft | 0 kts | 55° |
| 2026-04-21 14:14 | 52.45551 | 7.17669 | 95 ft | 0 kts | 57° |
| 2026-04-21 14:14 | 52.45557 | 7.17703 | 98 ft | 5 kts | 126° |
| 2026-04-21 14:14 | 52.45529 | 7.17737 | 96 ft | 6 kts | 135° |
| 2026-04-21 14:15 | 52.45528 | 7.17751 | 96 ft | 0 kts | 57° |
| 2026-04-21 14:15 | 52.45540 | 7.17781 | 96 ft | 2 kts | 54° |
| 2026-04-21 14:15 | 52.45546 | 7.17794 | 96 ft | 15 kts | 54° |
| 2026-04-21 14:15 | 52.45736 | 7.18251 | 96 ft | 74 kts | 55° |
| 2026-04-21 14:16 | 52.46063 | 7.19004 | 307 ft | 87 kts | 56° |
| 2026-04-21 14:16 | 52.46396 | 7.19867 | 643 ft | 94 kts | 60° |
| 2026-04-21 14:16 | 52.46738 | 7.20799 | 977 ft | 97 kts | 58° |
| 2026-04-21 14:16 | 52.47144 | 7.21689 | 1292 ft | 98 kts | 47° |
| 2026-04-21 14:17 | 52.47461 | 7.22663 | 1573 ft | 105 kts | 82° |
| 2026-04-21 14:17 | 52.47294 | 7.23809 | 1992 ft | 102 kts | 109° |
| 2026-04-21 14:17 | 52.46967 | 7.24811 | 2403 ft | 102 kts | 113° |
| 2026-04-21 14:17 | 52.46560 | 7.25793 | 2730 ft | 105 kts | 117° |
| 2026-04-21 14:18 | 52.46138 | 7.26777 | 3048 ft | 107 kts | 117° |
| 2026-04-21 14:18 | 52.45710 | 7.27781 | 3376 ft | 108 kts | 116° |
| 2026-04-21 14:18 | 52.45281 | 7.28790 | 3707 ft | 109 kts | 117° |
| 2026-04-21 14:18 | 52.44845 | 7.29817 | 4004 ft | 113 kts | 117° |
| 2026-04-21 14:19 | 52.44338 | 7.31016 | 4011 ft | 140 kts | 119° |
| 2026-04-21 14:19 | 52.43759 | 7.32371 | 3996 ft | 151 kts | 120° |
| 2026-04-21 14:19 | 52.43143 | 7.33809 | 3993 ft | 156 kts | 120° |
| 2026-04-21 14:19 | 52.42515 | 7.35276 | 3993 ft | 157 kts | 119° |
| 2026-04-21 14:20 | 52.41893 | 7.36729 | 3997 ft | 155 kts | 120° |
| 2026-04-21 14:20 | 52.41274 | 7.38178 | 3993 ft | 155 kts | 120° |
| 2026-04-21 14:20 | 52.40662 | 7.39614 | 3988 ft | 153 kts | 120° |
| 2026-04-21 14:20 | 52.40050 | 7.41034 | 3992 ft | 153 kts | 121° |
| 2026-04-21 14:21 | 52.39445 | 7.42446 | 3996 ft | 154 kts | 120° |
| 2026-04-21 14:21 | 52.38828 | 7.43889 | 3995 ft | 155 kts | 120° |
| 2026-04-21 14:21 | 52.38208 | 7.45333 | 3983 ft | 155 kts | 121° |
| 2026-04-21 14:21 | 52.37590 | 7.46777 | 3991 ft | 154 kts | 120° |
| 2026-04-21 14:22 | 52.36979 | 7.48207 | 3996 ft | 154 kts | 120° |
| 2026-04-21 14:22 | 52.36362 | 7.49639 | 3995 ft | 154 kts | 120° |
| 2026-04-21 14:22 | 52.35743 | 7.51081 | 3980 ft | 155 kts | 120° |
| 2026-04-21 14:22 | 52.35127 | 7.52517 | 3987 ft | 153 kts | 120° |
| 2026-04-21 14:23 | 52.34538 | 7.53967 | 3982 ft | 152 kts | 112° |
| 2026-04-21 14:23 | 52.34190 | 7.55586 | 3988 ft | 150 kts | 103° |
| 2026-04-21 14:23 | 52.33879 | 7.57207 | 3999 ft | 149 kts | 103° |
| 2026-04-21 14:23 | 52.33545 | 7.58796 | 3981 ft | 152 kts | 114° |
| 2026-04-21 14:24 | 52.32734 | 7.59926 | 3979 ft | 159 kts | 152° |
| 2026-04-21 14:24 | 52.31626 | 7.60114 | 3987 ft | 168 kts | 188° |
| 2026-04-21 14:24 | 52.30603 | 7.59153 | 3994 ft | 172 kts | 217° |
| 2026-04-21 14:24 | 52.29715 | 7.57821 | 3992 ft | 175 kts | 221° |
| 2026-04-21 14:25 | 52.28827 | 7.56450 | 3992 ft | 176 kts | 220° |
| 2026-04-21 14:25 | 52.27926 | 7.55092 | 3998 ft | 176 kts | 220° |
| 2026-04-21 14:25 | 52.27022 | 7.53738 | 3983 ft | 176 kts | 220° |
| 2026-04-21 14:25 | 52.26115 | 7.52394 | 3996 ft | 176 kts | 220° |
| 2026-04-21 14:26 | 52.25237 | 7.51111 | 3983 ft | 177 kts | 220° |
| 2026-04-21 14:26 | 52.24323 | 7.49757 | 3980 ft | 176 kts | 221° |
| 2026-04-21 14:26 | 52.23423 | 7.48410 | 3980 ft | 175 kts | 221° |
| 2026-04-21 14:26 | 52.22519 | 7.47073 | 3982 ft | 176 kts | 220° |
| 2026-04-21 14:27 | 52.21618 | 7.45746 | 3975 ft | 175 kts | 220° |
| 2026-04-21 14:27 | 52.20718 | 7.44415 | 3982 ft | 176 kts | 220° |
| 2026-04-21 14:27 | 52.19805 | 7.43067 | 3976 ft | 177 kts | 220° |
| 2026-04-21 14:27 | 52.18899 | 7.41732 | 3974 ft | 174 kts | 220° |
| 2026-04-21 14:28 | 52.18008 | 7.40415 | 3979 ft | 173 kts | 220° |
| 2026-04-21 14:28 | 52.17119 | 7.39103 | 3979 ft | 172 kts | 220° |
| 2026-04-21 14:28 | 52.16238 | 7.37799 | 3983 ft | 171 kts | 220° |
| 2026-04-21 14:28 | 52.15350 | 7.36492 | 3971 ft | 172 kts | 220° |
| 2026-04-21 14:29 | 52.14464 | 7.35196 | 3966 ft | 170 kts | 220° |
| 2026-04-21 14:29 | 52.13592 | 7.33919 | 3973 ft | 168 kts | 220° |
| 2026-04-21 14:29 | 52.12725 | 7.32645 | 3969 ft | 167 kts | 221° |
| 2026-04-21 14:29 | 52.11861 | 7.31370 | 3968 ft | 168 kts | 220° |
| 2026-04-21 14:30 | 52.10985 | 7.30082 | 3979 ft | 172 kts | 220° |
| 2026-04-21 14:30 | 52.10093 | 7.28772 | 3982 ft | 173 kts | 220° |
| 2026-04-21 14:30 | 52.09193 | 7.27449 | 3975 ft | 175 kts | 219° |
| 2026-04-21 14:30 | 52.08150 | 7.26560 | 3978 ft | 170 kts | 188° |
| 2026-04-21 14:31 | 52.07000 | 7.26628 | 3972 ft | 162 kts | 156° |
| 2026-04-21 14:31 | 52.06077 | 7.27551 | 3971 ft | 152 kts | 124° |
| 2026-04-21 14:31 | 52.05763 | 7.29080 | 3976 ft | 142 kts | 89° |
| 2026-04-21 14:31 | 52.05742 | 7.30693 | 3974 ft | 143 kts | 88° |
| 2026-04-21 14:32 | 52.05880 | 7.32283 | 3990 ft | 143 kts | 74° |
| 2026-04-21 14:32 | 52.06159 | 7.33844 | 3973 ft | 143 kts | 71° |
| 2026-04-21 14:32 | 52.06463 | 7.35385 | 3975 ft | 143 kts | 71° |
| 2026-04-21 14:32 | 52.06786 | 7.36932 | 3975 ft | 147 kts | 69° |
| 2026-04-21 14:33 | 52.07126 | 7.38525 | 3869 ft | 151 kts | 70° |
| 2026-04-21 14:33 | 52.07471 | 7.40151 | 3671 ft | 159 kts | 70° |
| 2026-04-21 14:33 | 52.07838 | 7.41885 | 3439 ft | 162 kts | 70° |
| 2026-04-21 14:33 | 52.08200 | 7.43595 | 3223 ft | 157 kts | 69° |
| 2026-04-21 14:34 | 52.08550 | 7.45250 | 3015 ft | 153 kts | 69° |
| 2026-04-21 14:34 | 52.08900 | 7.46903 | 2790 ft | 156 kts | 70° |
| 2026-04-21 14:34 | 52.09249 | 7.48563 | 2579 ft | 154 kts | 70° |
| 2026-04-21 14:34 | 52.09597 | 7.50206 | 2361 ft | 152 kts | 70° |
| 2026-04-21 14:35 | 52.09941 | 7.51838 | 2142 ft | 152 kts | 70° |
| 2026-04-21 14:35 | 52.10280 | 7.53436 | 1934 ft | 148 kts | 69° |
| 2026-04-21 14:35 | 52.10609 | 7.54977 | 1729 ft | 139 kts | 69° |
| 2026-04-21 14:35 | 52.10913 | 7.56410 | 1551 ft | 130 kts | 70° |
| 2026-04-21 14:36 | 52.11190 | 7.57727 | 1374 ft | 114 kts | 69° |
| 2026-04-21 14:36 | 52.11429 | 7.58866 | 1235 ft | 99 kts | 68° |
| 2026-04-21 14:36 | 52.11648 | 7.59898 | 1099 ft | 94 kts | 69° |
| 2026-04-21 14:36 | 52.11857 | 7.60889 | 979 ft | 92 kts | 67° |
| 2026-04-21 14:37 | 52.12063 | 7.61867 | 848 ft | 90 kts | 66° |
| 2026-04-21 14:37 | 52.12259 | 7.62804 | 726 ft | 85 kts | 67° |
| 2026-04-21 14:37 | 52.12447 | 7.63685 | 629 ft | 80 kts | 65° |
| 2026-04-21 14:37 | 52.12630 | 7.64546 | 523 ft | 78 kts | 66° |
| 2026-04-21 14:38 | 52.12802 | 7.65359 | 419 ft | 77 kts | 69° |
| 2026-04-21 14:38 | 52.12977 | 7.66179 | 310 ft | 76 kts | 69° |
| 2026-04-21 14:38 | 52.13150 | 7.66986 | 213 ft | 77 kts | 70° |
| 2026-04-21 14:38 | 52.13302 | 7.67709 | 161 ft | 48 kts | 71° |
| 2026-04-21 14:39 | 52.13416 | 7.68257 | 163 ft | 70 kts | 71° |
| 2026-04-21 14:39 | 52.13597 | 7.69110 | 363 ft | 82 kts | 68° |
| 2026-04-21 14:39 | 52.13787 | 7.69998 | 719 ft | 84 kts | 66° |
| 2026-04-21 14:39 | 52.14021 | 7.70893 | 1029 ft | 91 kts | 62° |
| 2026-04-21 14:40 | 52.14322 | 7.71869 | 1313 ft | 101 kts | 61° |
| 2026-04-21 14:40 | 52.14625 | 7.72928 | 1588 ft | 108 kts | 73° |
| 2026-04-21 14:40 | 52.14823 | 7.74072 | 1988 ft | 103 kts | 72° |
| 2026-04-21 14:40 | 52.15025 | 7.75191 | 2302 ft | 106 kts | 72° |
| 2026-04-21 14:41 | 52.15237 | 7.76360 | 2613 ft | 107 kts | 71° |
| 2026-04-21 14:41 | 52.15456 | 7.77529 | 2948 ft | 108 kts | 70° |
| 2026-04-21 14:41 | 52.15680 | 7.78697 | 3298 ft | 109 kts | 70° |
| 2026-04-21 14:41 | 52.15885 | 7.79890 | 3640 ft | 109 kts | 80° |
| 2026-04-21 14:42 | 52.15825 | 7.81095 | 3956 ft | 112 kts | 101° |
| 2026-04-21 14:42 | 52.15404 | 7.82301 | 3964 ft | 134 kts | 127° |
| 2026-04-21 14:42 | 52.14564 | 7.83131 | 3968 ft | 149 kts | 154° |
| 2026-04-21 14:42 | 52.13551 | 7.83693 | 3959 ft | 157 kts | 156° |
| 2026-04-21 14:43 | 52.12507 | 7.84254 | 3964 ft | 159 kts | 155° |
| 2026-04-21 14:43 | 52.11447 | 7.84831 | 3965 ft | 162 kts | 155° |
| 2026-04-21 14:43 | 52.10363 | 7.85388 | 3960 ft | 166 kts | 162° |
| 2026-04-21 14:43 | 52.09193 | 7.85380 | 3954 ft | 172 kts | 188° |
| 2026-04-21 14:44 | 52.08099 | 7.84590 | 3954 ft | 174 kts | 213° |
| 2026-04-21 14:44 | 52.07290 | 7.83134 | 3960 ft | 175 kts | 239° |
| 2026-04-21 14:44 | 52.06830 | 7.81288 | 3961 ft | 177 kts | 252° |
| 2026-04-21 14:44 | 52.06434 | 7.79410 | 3962 ft | 178 kts | 252° |
| 2026-04-21 14:45 | 52.06038 | 7.77491 | 3964 ft | 179 kts | 252° |
| 2026-04-21 14:45 | 52.05638 | 7.75578 | 3957 ft | 178 kts | 252° |
| 2026-04-21 14:45 | 52.05245 | 7.73676 | 3961 ft | 177 kts | 252° |
| 2026-04-21 14:45 | 52.04850 | 7.71782 | 3958 ft | 177 kts | 252° |
| 2026-04-21 14:46 | 52.04460 | 7.69894 | 3953 ft | 175 kts | 252° |
| 2026-04-21 14:46 | 52.04070 | 7.68028 | 3961 ft | 175 kts | 252° |
| 2026-04-21 14:46 | 52.03677 | 7.66135 | 3964 ft | 178 kts | 252° |
| 2026-04-21 14:46 | 52.03286 | 7.64235 | 3968 ft | 177 kts | 252° |
| 2026-04-21 14:47 | 52.02887 | 7.62340 | 3980 ft | 177 kts | 252° |
| 2026-04-21 14:47 | 52.02487 | 7.60445 | 3971 ft | 177 kts | 252° |
| 2026-04-21 14:47 | 52.02091 | 7.58577 | 3974 ft | 177 kts | 252° |
| 2026-04-21 14:47 | 52.01683 | 7.56681 | 3973 ft | 175 kts | 252° |
| 2026-04-21 14:48 | 52.01286 | 7.54833 | 3972 ft | 175 kts | 252° |
| 2026-04-21 14:48 | 52.00881 | 7.52973 | 3964 ft | 174 kts | 252° |
| 2026-04-21 14:48 | 52.00484 | 7.51116 | 3968 ft | 174 kts | 252° |
| 2026-04-21 14:48 | 52.00088 | 7.49266 | 3970 ft | 174 kts | 252° |
| 2026-04-21 14:49 | 51.99690 | 7.47395 | 3972 ft | 175 kts | 252° |
| 2026-04-21 14:49 | 51.99298 | 7.45542 | 3973 ft | 173 kts | 252° |
| 2026-04-21 14:49 | 51.98909 | 7.43698 | 3972 ft | 172 kts | 252° |
| 2026-04-21 14:49 | 51.98517 | 7.41847 | 3969 ft | 174 kts | 252° |
| 2026-04-21 14:50 | 51.98257 | 7.40625 | 3973 ft | 173 kts | 252° |
| 2026-04-21 14:50 | 51.97731 | 7.38144 | 3972 ft | 175 kts | 252° |
| 2026-04-21 14:50 | 51.97338 | 7.36278 | 3971 ft | 174 kts | 254° |
| 2026-04-21 14:50 | 51.97368 | 7.34380 | 3962 ft | 169 kts | 295° |
| 2026-04-21 14:51 | 51.98112 | 7.33019 | 3960 ft | 159 kts | 337° |
| 2026-04-21 14:51 | 51.99149 | 7.32820 | 3970 ft | 149 kts | 19° |
| 2026-04-21 14:51 | 52.00051 | 7.33613 | 3971 ft | 147 kts | 39° |
| 2026-04-21 14:51 | 52.00729 | 7.34822 | 3968 ft | 144 kts | 56° |
| 2026-04-21 14:52 | 52.01342 | 7.36073 | 3981 ft | 145 kts | 45° |
| 2026-04-21 14:52 | 52.02135 | 7.37145 | 3969 ft | 148 kts | 39° |
| 2026-04-21 14:52 | 52.02943 | 7.38129 | 3974 ft | 147 kts | 38° |
| 2026-04-21 14:52 | 52.03767 | 7.39120 | 3965 ft | 146 kts | 38° |
| 2026-04-21 14:53 | 52.04583 | 7.40101 | 3964 ft | 145 kts | 38° |
| 2026-04-21 14:53 | 52.05391 | 7.41073 | 3971 ft | 144 kts | 39° |
| 2026-04-21 14:53 | 52.06203 | 7.42033 | 3956 ft | 147 kts | 38° |
| 2026-04-21 14:53 | 52.07049 | 7.43058 | 3754 ft | 156 kts | 38° |
| 2026-04-21 14:54 | 52.07873 | 7.44230 | 3530 ft | 160 kts | 50° |
| 2026-04-21 14:54 | 52.08521 | 7.45701 | 3208 ft | 158 kts | 63° |
| 2026-04-21 14:54 | 52.08949 | 7.47313 | 2874 ft | 157 kts | 68° |
| 2026-04-21 14:54 | 52.09327 | 7.48973 | 2539 ft | 155 kts | 69° |
| 2026-04-21 14:55 | 52.09683 | 7.50587 | 2315 ft | 148 kts | 69° |
| 2026-04-21 14:55 | 52.10015 | 7.52159 | 2107 ft | 145 kts | 70° |
| 2026-04-21 14:55 | 52.10343 | 7.53715 | 1903 ft | 144 kts | 69° |
| 2026-04-21 14:55 | 52.10669 | 7.55253 | 1705 ft | 142 kts | 70° |
| 2026-04-21 14:56 | 52.10990 | 7.56770 | 1504 ft | 142 kts | 69° |
| 2026-04-21 14:56 | 52.11312 | 7.58290 | 1313 ft | 140 kts | 69° |
| 2026-04-21 14:56 | 52.11623 | 7.59770 | 1118 ft | 135 kts | 70° |
| 2026-04-21 14:56 | 52.11916 | 7.61166 | 939 ft | 129 kts | 68° |
| 2026-04-21 14:57 | 52.12194 | 7.62491 | 762 ft | 114 kts | 69° |
| 2026-04-21 14:57 | 52.12427 | 7.63596 | 626 ft | 95 kts | 67° |
| 2026-04-21 14:57 | 52.12631 | 7.64561 | 515 ft | 85 kts | 69° |
| 2026-04-21 14:57 | 52.12807 | 7.65379 | 421 ft | 75 kts | 66° |
| 2026-04-21 14:58 | 52.12923 | 7.65910 | 363 ft | 75 kts | 68° |
| 2026-04-21 14:58 | 52.13087 | 7.66689 | 241 ft | 72 kts | 68° |
| 2026-04-21 14:58 | 52.13251 | 7.67471 | 160 ft | 63 kts | 70° |
| 2026-04-21 14:58 | 52.13351 | 7.67949 | 162 ft | 32 kts | 69° |
| 2026-04-21 14:59 | 52.13397 | 7.68195 | 163 ft | 14 kts | 104° |
| 2026-04-21 14:59 | 52.13320 | 7.68284 | 162 ft | 16 kts | 161° |
| 2026-04-21 14:59 | 52.13297 | 7.68297 | 162 ft | 0 kts | 161° |
| 2026-04-21 14:59 | 52.13278 | 7.68308 | 162 ft | 13 kts | 160° |
| 2026-04-21 15:00 | 52.13168 | 7.68370 | 162 ft | 13 kts | 163° |
| 2026-04-21 15:00 | 52.13129 | 7.68349 | 162 ft | 4 kts | 274° |
| 2026-04-21 15:00 | 52.13129 | 7.68333 | 162 ft | 0 kts | 271° |
| 2026-04-21 15:04 | 52.13129 | 7.68334 | 162 ft | 0 kts | 271° |